sensor_id;sensor_type;location;lat;lon;timestamp;P1;durP1;ratioP1;P2;durP2;ratioP2
20743;SDS011;56303;52.160;-0.428;2023-08-24T00:01:34;8.23;;;3.53;;
20743;SDS011;56303;52.160;-0.428;2023-08-24T00:04:01;9.33;;;3.70;;
20743;SDS011;56303;52.160;-0.428;2023-08-24T00:06:27;7.63;;;3.23;;
20743;SDS011;56303;52.160;-0.428;2023-08-24T00:08:54;6.57;;;3.73;;
20743;SDS011;56303;52.160;-0.428;2023-08-24T00:11:21;9.93;;;4.17;;
20743;SDS011;56303;52.160;-0.428;2023-08-24T00:13:48;7.57;;;3.43;;
20743;SDS011;56303;52.160;-0.428;2023-08-24T00:16:18;9.50;;;3.77;;
20743;SDS011;56303;52.160;-0.428;2023-08-24T00:18:46;11.97;;;4.10;;
20743;SDS011;56303;52.160;-0.428;2023-08-24T00:21:13;8.50;;;4.10;;
20743;SDS011;56303;52.160;-0.428;2023-08-24T00:23:45;7.37;;;3.80;;
20743;SDS011;56303;52.160;-0.428;2023-08-24T00:26:12;11.50;;;3.87;;
20743;SDS011;56303;52.160;-0.428;2023-08-24T00:28:39;7.30;;;3.70;;
20743;SDS011;56303;52.160;-0.428;2023-08-24T00:31:06;6.67;;;3.70;;
20743;SDS011;56303;52.160;-0.428;2023-08-24T00:33:33;5.70;;;3.90;;
20743;SDS011;56303;52.160;-0.428;2023-08-24T00:36:01;6.23;;;3.73;;
20743;SDS011;56303;52.160;-0.428;2023-08-24T00:38:28;8.47;;;3.80;;
20743;SDS011;56303;52.160;-0.428;2023-08-24T00:40:55;7.30;;;4.40;;
20743;SDS011;56303;52.160;-0.428;2023-08-24T00:43:22;7.77;;;3.93;;
20743;SDS011;56303;52.160;-0.428;2023-08-24T00:45:50;8.27;;;3.60;;
20743;SDS011;56303;52.160;-0.428;2023-08-24T00:48:18;7.10;;;4.27;;
20743;SDS011;56303;52.160;-0.428;2023-08-24T00:50:46;11.03;;;4.10;;
20743;SDS011;56303;52.160;-0.428;2023-08-24T00:53:13;8.93;;;4.00;;
20743;SDS011;56303;52.160;-0.428;2023-08-24T00:55:40;6.03;;;4.00;;
20743;SDS011;56303;52.160;-0.428;2023-08-24T00:58:07;6.80;;;4.10;;
20743;SDS011;56303;52.160;-0.428;2023-08-24T01:00:34;9.47;;;3.80;;
20743;SDS011;56303;52.160;-0.428;2023-08-24T01:03:01;11.83;;;3.83;;
20743;SDS011;56303;52.160;-0.428;2023-08-24T01:05:28;10.07;;;4.10;;
20743;SDS011;56303;52.160;-0.428;2023-08-24T01:07:55;7.37;;;4.10;;
20743;SDS011;56303;52.160;-0.428;2023-08-24T01:10:22;7.67;;;4.13;;
20743;SDS011;56303;52.160;-0.428;2023-08-24T01:13:08;7.93;;;4.07;;
20743;SDS011;56303;52.160;-0.428;2023-08-24T01:15:37;9.43;;;4.30;;
20743;SDS011;56303;52.160;-0.428;2023-08-24T01:18:12;8.27;;;4.50;;
20743;SDS011;56303;52.160;-0.428;2023-08-24T01:20:42;8.70;;;4.80;;
20743;SDS011;56303;52.160;-0.428;2023-08-24T01:25:52;8.10;;;3.83;;
20743;SDS011;56303;52.160;-0.428;2023-08-24T01:28:21;8.27;;;4.23;;
20743;SDS011;56303;52.160;-0.428;2023-08-24T01:30:49;10.13;;;5.30;;
20743;SDS011;56303;52.160;-0.428;2023-08-24T01:33:16;6.77;;;4.37;;
20743;SDS011;56303;52.160;-0.428;2023-08-24T01:35:43;9.47;;;4.33;;
20743;SDS011;56303;52.160;-0.428;2023-08-24T01:38:10;5.80;;;4.40;;
20743;SDS011;56303;52.160;-0.428;2023-08-24T01:40:43;8.13;;;4.27;;
20743;SDS011;56303;52.160;-0.428;2023-08-24T01:43:16;8.00;;;4.10;;
20743;SDS011;56303;52.160;-0.428;2023-08-24T01:46:07;10.57;;;5.73;;
20743;SDS011;56303;52.160;-0.428;2023-08-24T01:48:34;10.97;;;5.83;;
20743;SDS011;56303;52.160;-0.428;2023-08-24T01:51:02;8.83;;;5.40;;
20743;SDS011;56303;52.160;-0.428;2023-08-24T01:53:30;11.90;;;7.00;;
20743;SDS011;56303;52.160;-0.428;2023-08-24T01:55:58;9.60;;;5.70;;
20743;SDS011;56303;52.160;-0.428;2023-08-24T01:58:24;8.03;;;5.80;;
20743;SDS011;56303;52.160;-0.428;2023-08-24T02:00:51;13.23;;;6.20;;
20743;SDS011;56303;52.160;-0.428;2023-08-24T02:03:18;8.60;;;5.53;;
20743;SDS011;56303;52.160;-0.428;2023-08-24T02:05:45;7.00;;;4.43;;
20743;SDS011;56303;52.160;-0.428;2023-08-24T02:08:12;11.37;;;5.83;;
20743;SDS011;56303;52.160;-0.428;2023-08-24T02:10:38;9.67;;;5.40;;
20743;SDS011;56303;52.160;-0.428;2023-08-24T02:13:05;10.43;;;6.07;;
20743;SDS011;56303;52.160;-0.428;2023-08-24T02:15:32;9.30;;;5.07;;
20743;SDS011;56303;52.160;-0.428;2023-08-24T02:17:59;7.33;;;4.47;;
20743;SDS011;56303;52.160;-0.428;2023-08-24T02:20:26;8.80;;;4.67;;
20743;SDS011;56303;52.160;-0.428;2023-08-24T02:22:53;9.97;;;4.80;;
20743;SDS011;56303;52.160;-0.428;2023-08-24T02:25:20;8.10;;;5.43;;
20743;SDS011;56303;52.160;-0.428;2023-08-24T02:27:47;11.17;;;5.90;;
20743;SDS011;56303;52.160;-0.428;2023-08-24T02:30:15;12.83;;;6.50;;
20743;SDS011;56303;52.160;-0.428;2023-08-24T02:32:42;9.47;;;5.17;;
20743;SDS011;56303;52.160;-0.428;2023-08-24T02:35:09;8.30;;;4.80;;
20743;SDS011;56303;52.160;-0.428;2023-08-24T02:37:36;8.80;;;5.03;;
20743;SDS011;56303;52.160;-0.428;2023-08-24T02:40:02;9.07;;;5.17;;
20743;SDS011;56303;52.160;-0.428;2023-08-24T02:42:30;8.30;;;5.10;;
20743;SDS011;56303;52.160;-0.428;2023-08-24T02:44:58;10.77;;;5.60;;
20743;SDS011;56303;52.160;-0.428;2023-08-24T02:47:25;9.53;;;5.43;;
20743;SDS011;56303;52.160;-0.428;2023-08-24T02:49:52;7.83;;;4.80;;
20743;SDS011;56303;52.160;-0.428;2023-08-24T02:52:19;8.97;;;5.83;;
20743;SDS011;56303;52.160;-0.428;2023-08-24T02:54:46;6.77;;;5.33;;
20743;SDS011;56303;52.160;-0.428;2023-08-24T02:57:12;8.23;;;5.57;;
20743;SDS011;56303;52.160;-0.428;2023-08-24T02:59:39;8.93;;;5.53;;
20743;SDS011;56303;52.160;-0.428;2023-08-24T03:02:09;9.80;;;5.90;;
20743;SDS011;56303;52.160;-0.428;2023-08-24T03:04:36;8.97;;;6.03;;
20743;SDS011;56303;52.160;-0.428;2023-08-24T03:07:03;10.03;;;6.53;;
20743;SDS011;56303;52.160;-0.428;2023-08-24T03:09:30;8.80;;;5.93;;
20743;SDS011;56303;52.160;-0.428;2023-08-24T03:11:57;7.03;;;5.77;;
20743;SDS011;56303;52.160;-0.428;2023-08-24T03:14:23;10.50;;;6.37;;
20743;SDS011;56303;52.160;-0.428;2023-08-24T03:16:50;11.53;;;7.13;;
20743;SDS011;56303;52.160;-0.428;2023-08-24T03:19:17;9.53;;;7.57;;
20743;SDS011;56303;52.160;-0.428;2023-08-24T03:21:44;9.60;;;7.37;;
20743;SDS011;56303;52.160;-0.428;2023-08-24T03:24:11;12.30;;;7.50;;
20743;SDS011;56303;52.160;-0.428;2023-08-24T03:26:39;13.37;;;8.63;;
20743;SDS011;56303;52.160;-0.428;2023-08-24T03:29:05;13.13;;;7.93;;
20743;SDS011;56303;52.160;-0.428;2023-08-24T03:31:32;10.17;;;7.90;;
20743;SDS011;56303;52.160;-0.428;2023-08-24T03:33:59;12.27;;;7.93;;
20743;SDS011;56303;52.160;-0.428;2023-08-24T03:36:26;12.57;;;8.67;;
20743;SDS011;56303;52.160;-0.428;2023-08-24T03:38:54;11.83;;;8.03;;
20743;SDS011;56303;52.160;-0.428;2023-08-24T03:41:21;10.30;;;7.27;;
20743;SDS011;56303;52.160;-0.428;2023-08-24T03:43:48;10.53;;;7.37;;
20743;SDS011;56303;52.160;-0.428;2023-08-24T03:46:14;8.40;;;6.13;;
20743;SDS011;56303;52.160;-0.428;2023-08-24T03:48:41;10.47;;;7.30;;
20743;SDS011;56303;52.160;-0.428;2023-08-24T03:51:08;11.50;;;7.80;;
20743;SDS011;56303;52.160;-0.428;2023-08-24T03:53:35;12.73;;;8.00;;
20743;SDS011;56303;52.160;-0.428;2023-08-24T03:56:02;11.87;;;7.50;;
20743;SDS011;56303;52.160;-0.428;2023-08-24T03:58:29;9.37;;;5.83;;
20743;SDS011;56303;52.160;-0.428;2023-08-24T04:00:56;7.60;;;5.03;;
20743;SDS011;56303;52.160;-0.428;2023-08-24T04:03:23;15.23;;;6.17;;
20743;SDS011;56303;52.160;-0.428;2023-08-24T04:05:50;8.87;;;6.00;;
20743;SDS011;56303;52.160;-0.428;2023-08-24T04:08:16;10.67;;;5.50;;
20743;SDS011;56303;52.160;-0.428;2023-08-24T04:10:44;9.67;;;5.97;;
20743;SDS011;56303;52.160;-0.428;2023-08-24T04:13:11;10.13;;;6.53;;
20743;SDS011;56303;52.160;-0.428;2023-08-24T04:15:37;11.50;;;6.70;;
20743;SDS011;56303;52.160;-0.428;2023-08-24T04:18:04;10.47;;;7.03;;
20743;SDS011;56303;52.160;-0.428;2023-08-24T04:20:32;10.03;;;6.77;;
20743;SDS011;56303;52.160;-0.428;2023-08-24T04:22:59;9.13;;;6.40;;
20743;SDS011;56303;52.160;-0.428;2023-08-24T04:25:26;12.53;;;8.03;;
20743;SDS011;56303;52.160;-0.428;2023-08-24T04:27:53;11.70;;;7.07;;
20743;SDS011;56303;52.160;-0.428;2023-08-24T04:30:19;9.37;;;6.97;;
20743;SDS011;56303;52.160;-0.428;2023-08-24T04:32:47;10.57;;;7.47;;
20743;SDS011;56303;52.160;-0.428;2023-08-24T04:35:14;9.40;;;7.37;;
20743;SDS011;56303;52.160;-0.428;2023-08-24T04:37:41;8.17;;;6.90;;
20743;SDS011;56303;52.160;-0.428;2023-08-24T04:40:08;7.23;;;5.17;;
20743;SDS011;56303;52.160;-0.428;2023-08-24T04:42:37;11.30;;;5.53;;
20743;SDS011;56303;52.160;-0.428;2023-08-24T04:45:04;7.87;;;5.17;;
20743;SDS011;56303;52.160;-0.428;2023-08-24T04:47:31;11.10;;;6.40;;
20743;SDS011;56303;52.160;-0.428;2023-08-24T04:49:58;9.87;;;6.50;;
20743;SDS011;56303;52.160;-0.428;2023-08-24T04:52:25;12.23;;;6.07;;
20743;SDS011;56303;52.160;-0.428;2023-08-24T04:54:51;10.77;;;5.73;;
20743;SDS011;56303;52.160;-0.428;2023-08-24T04:57:18;7.23;;;5.37;;
20743;SDS011;56303;52.160;-0.428;2023-08-24T04:59:45;9.70;;;6.13;;
20743;SDS011;56303;52.160;-0.428;2023-08-24T05:02:12;7.93;;;5.67;;
20743;SDS011;56303;52.160;-0.428;2023-08-24T05:04:39;8.37;;;6.23;;
20743;SDS011;56303;52.160;-0.428;2023-08-24T05:07:06;9.07;;;5.90;;
20743;SDS011;56303;52.160;-0.428;2023-08-24T05:09:32;9.80;;;6.30;;
20743;SDS011;56303;52.160;-0.428;2023-08-24T05:11:59;8.43;;;6.00;;
20743;SDS011;56303;52.160;-0.428;2023-08-24T05:14:26;8.77;;;6.60;;
20743;SDS011;56303;52.160;-0.428;2023-08-24T05:16:53;10.30;;;6.63;;
20743;SDS011;56303;52.160;-0.428;2023-08-24T05:19:20;7.13;;;5.90;;
20743;SDS011;56303;52.160;-0.428;2023-08-24T05:21:47;7.07;;;5.70;;
20743;SDS011;56303;52.160;-0.428;2023-08-24T05:24:14;9.07;;;6.97;;
20743;SDS011;56303;52.160;-0.428;2023-08-24T05:26:41;9.73;;;7.60;;
20743;SDS011;56303;52.160;-0.428;2023-08-24T05:29:08;8.33;;;7.07;;
20743;SDS011;56303;52.160;-0.428;2023-08-24T05:31:35;17.47;;;7.77;;
20743;SDS011;56303;52.160;-0.428;2023-08-24T05:34:01;9.83;;;7.57;;
20743;SDS011;56303;52.160;-0.428;2023-08-24T05:36:28;10.90;;;7.80;;
20743;SDS011;56303;52.160;-0.428;2023-08-24T05:38:55;9.73;;;6.97;;
20743;SDS011;56303;52.160;-0.428;2023-08-24T05:41:31;11.73;;;7.47;;
20743;SDS011;56303;52.160;-0.428;2023-08-24T05:43:58;11.30;;;7.63;;
20743;SDS011;56303;52.160;-0.428;2023-08-24T05:46:25;11.03;;;8.10;;
20743;SDS011;56303;52.160;-0.428;2023-08-24T05:48:52;10.07;;;7.67;;
20743;SDS011;56303;52.160;-0.428;2023-08-24T05:51:19;11.67;;;7.87;;
20743;SDS011;56303;52.160;-0.428;2023-08-24T05:53:46;11.97;;;6.70;;
20743;SDS011;56303;52.160;-0.428;2023-08-24T05:56:13;9.00;;;6.47;;
20743;SDS011;56303;52.160;-0.428;2023-08-24T05:58:40;9.73;;;6.93;;
20743;SDS011;56303;52.160;-0.428;2023-08-24T06:01:07;12.80;;;7.97;;
20743;SDS011;56303;52.160;-0.428;2023-08-24T06:03:34;11.73;;;8.47;;
20743;SDS011;56303;52.160;-0.428;2023-08-24T06:06:02;11.00;;;7.43;;
20743;SDS011;56303;52.160;-0.428;2023-08-24T06:08:29;13.63;;;9.30;;
20743;SDS011;56303;52.160;-0.428;2023-08-24T06:10:57;15.40;;;10.10;;
20743;SDS011;56303;52.160;-0.428;2023-08-24T06:13:24;13.93;;;9.53;;
20743;SDS011;56303;52.160;-0.428;2023-08-24T06:15:52;14.03;;;10.23;;
20743;SDS011;56303;52.160;-0.428;2023-08-24T06:18:19;11.33;;;9.40;;
20743;SDS011;56303;52.160;-0.428;2023-08-24T06:20:46;14.53;;;9.33;;
20743;SDS011;56303;52.160;-0.428;2023-08-24T06:23:18;12.27;;;9.37;;
20743;SDS011;56303;52.160;-0.428;2023-08-24T06:25:45;14.33;;;9.33;;
20743;SDS011;56303;52.160;-0.428;2023-08-24T06:28:12;12.50;;;9.90;;
20743;SDS011;56303;52.160;-0.428;2023-08-24T06:30:40;13.03;;;8.90;;
20743;SDS011;56303;52.160;-0.428;2023-08-24T06:33:09;10.70;;;9.43;;
20743;SDS011;56303;52.160;-0.428;2023-08-24T06:35:40;14.70;;;10.10;;
20743;SDS011;56303;52.160;-0.428;2023-08-24T06:38:07;12.20;;;8.83;;
20743;SDS011;56303;52.160;-0.428;2023-08-24T06:40:34;11.87;;;8.53;;
20743;SDS011;56303;52.160;-0.428;2023-08-24T06:43:00;10.63;;;9.50;;
20743;SDS011;56303;52.160;-0.428;2023-08-24T06:45:27;13.63;;;10.00;;
20743;SDS011;56303;52.160;-0.428;2023-08-24T06:47:54;12.67;;;9.17;;
20743;SDS011;56303;52.160;-0.428;2023-08-24T06:50:21;10.70;;;9.60;;
20743;SDS011;56303;52.160;-0.428;2023-08-24T06:52:48;14.77;;;9.20;;
20743;SDS011;56303;52.160;-0.428;2023-08-24T06:55:15;12.17;;;8.97;;
20743;SDS011;56303;52.160;-0.428;2023-08-24T06:57:42;9.97;;;8.77;;
20743;SDS011;56303;52.160;-0.428;2023-08-24T07:00:14;10.00;;;9.00;;
20743;SDS011;56303;52.160;-0.428;2023-08-24T07:02:41;13.37;;;9.33;;
20743;SDS011;56303;52.160;-0.428;2023-08-24T07:05:08;12.20;;;9.87;;
20743;SDS011;56303;52.160;-0.428;2023-08-24T07:07:36;12.37;;;8.90;;
20743;SDS011;56303;52.160;-0.428;2023-08-24T07:10:03;11.07;;;8.83;;
20743;SDS011;56303;52.160;-0.428;2023-08-24T07:12:30;9.43;;;8.40;;
20743;SDS011;56303;52.160;-0.428;2023-08-24T07:14:57;10.43;;;8.50;;
20743;SDS011;56303;52.160;-0.428;2023-08-24T07:17:24;12.67;;;8.87;;
20743;SDS011;56303;52.160;-0.428;2023-08-24T07:19:51;10.90;;;7.87;;
20743;SDS011;56303;52.160;-0.428;2023-08-24T07:22:18;12.63;;;8.10;;
20743;SDS011;56303;52.160;-0.428;2023-08-24T07:24:45;13.57;;;8.40;;
20743;SDS011;56303;52.160;-0.428;2023-08-24T07:27:12;9.27;;;7.67;;
20743;SDS011;56303;52.160;-0.428;2023-08-24T07:29:39;11.17;;;8.30;;
20743;SDS011;56303;52.160;-0.428;2023-08-24T07:32:07;11.17;;;8.20;;
20743;SDS011;56303;52.160;-0.428;2023-08-24T07:34:34;10.63;;;8.03;;
20743;SDS011;56303;52.160;-0.428;2023-08-24T07:37:01;11.57;;;8.17;;
20743;SDS011;56303;52.160;-0.428;2023-08-24T07:39:28;13.20;;;8.17;;
20743;SDS011;56303;52.160;-0.428;2023-08-24T07:41:55;13.03;;;7.60;;
20743;SDS011;56303;52.160;-0.428;2023-08-24T07:44:22;13.90;;;7.90;;
20743;SDS011;56303;52.160;-0.428;2023-08-24T07:46:49;9.87;;;7.60;;
20743;SDS011;56303;52.160;-0.428;2023-08-24T07:49:16;10.33;;;7.50;;
20743;SDS011;56303;52.160;-0.428;2023-08-24T07:51:43;9.93;;;7.20;;
20743;SDS011;56303;52.160;-0.428;2023-08-24T07:54:10;9.03;;;7.30;;
20743;SDS011;56303;52.160;-0.428;2023-08-24T07:56:37;10.93;;;8.00;;
20743;SDS011;56303;52.160;-0.428;2023-08-24T07:59:04;9.97;;;7.00;;
20743;SDS011;56303;52.160;-0.428;2023-08-24T08:01:31;10.70;;;6.40;;
20743;SDS011;56303;52.160;-0.428;2023-08-24T08:03:58;9.17;;;6.30;;
20743;SDS011;56303;52.160;-0.428;2023-08-24T08:06:26;9.73;;;6.87;;
20743;SDS011;56303;52.160;-0.428;2023-08-24T08:08:53;8.13;;;6.40;;
20743;SDS011;56303;52.160;-0.428;2023-08-24T08:11:20;9.43;;;6.83;;
20743;SDS011;56303;52.160;-0.428;2023-08-24T08:13:47;8.93;;;6.23;;
20743;SDS011;56303;52.160;-0.428;2023-08-24T08:16:14;9.87;;;6.67;;
20743;SDS011;56303;52.160;-0.428;2023-08-24T08:18:41;8.77;;;5.93;;
20743;SDS011;56303;52.160;-0.428;2023-08-24T08:21:18;9.00;;;5.63;;
20743;SDS011;56303;52.160;-0.428;2023-08-24T08:23:47;9.10;;;5.83;;
20743;SDS011;56303;52.160;-0.428;2023-08-24T08:26:15;10.07;;;5.70;;
20743;SDS011;56303;52.160;-0.428;2023-08-24T08:28:43;8.83;;;5.40;;
20743;SDS011;56303;52.160;-0.428;2023-08-24T08:31:10;9.77;;;6.35;;
20743;SDS011;56303;52.160;-0.428;2023-08-24T08:33:38;11.30;;;6.25;;
20743;SDS011;56303;52.160;-0.428;2023-08-24T08:36:05;7.88;;;5.82;;
20743;SDS011;56303;52.160;-0.428;2023-08-24T08:38:32;8.32;;;5.57;;
20743;SDS011;56303;52.160;-0.428;2023-08-24T08:41:02;7.30;;;5.77;;
20743;SDS011;56303;52.160;-0.428;2023-08-24T08:43:30;11.27;;;5.55;;
20743;SDS011;56303;52.160;-0.428;2023-08-24T08:45:57;10.73;;;6.03;;
20743;SDS011;56303;52.160;-0.428;2023-08-24T08:48:25;10.25;;;5.68;;
20743;SDS011;56303;52.160;-0.428;2023-08-24T08:50:57;8.27;;;6.03;;
20743;SDS011;56303;52.160;-0.428;2023-08-24T08:53:24;9.82;;;6.05;;
20743;SDS011;56303;52.160;-0.428;2023-08-24T08:55:51;9.27;;;5.68;;
20743;SDS011;56303;52.160;-0.428;2023-08-24T08:58:20;10.82;;;6.05;;
20743;SDS011;56303;52.160;-0.428;2023-08-24T09:00:47;10.32;;;5.35;;
20743;SDS011;56303;52.160;-0.428;2023-08-24T09:03:17;11.82;;;6.03;;
20743;SDS011;56303;52.160;-0.428;2023-08-24T09:05:45;8.85;;;5.63;;
20743;SDS011;56303;52.160;-0.428;2023-08-24T09:08:16;7.20;;;4.88;;
20743;SDS011;56303;52.160;-0.428;2023-08-24T09:10:43;6.65;;;5.13;;
20743;SDS011;56303;52.160;-0.428;2023-08-24T09:13:11;6.75;;;5.18;;
20743;SDS011;56303;52.160;-0.428;2023-08-24T09:15:38;11.38;;;5.47;;
20743;SDS011;56303;52.160;-0.428;2023-08-24T09:18:05;8.65;;;5.60;;
20743;SDS011;56303;52.160;-0.428;2023-08-24T09:20:33;11.43;;;6.15;;
20743;SDS011;56303;52.160;-0.428;2023-08-24T09:23:01;10.85;;;6.75;;
20743;SDS011;56303;52.160;-0.428;2023-08-24T09:25:28;11.57;;;6.28;;
20743;SDS011;56303;52.160;-0.428;2023-08-24T09:27:58;11.13;;;5.90;;
20743;SDS011;56303;52.160;-0.428;2023-08-24T09:30:34;10.15;;;5.90;;
20743;SDS011;56303;52.160;-0.428;2023-08-24T09:33:09;9.30;;;5.55;;
20743;SDS011;56303;52.160;-0.428;2023-08-24T09:35:37;10.07;;;5.40;;
20743;SDS011;56303;52.160;-0.428;2023-08-24T09:38:19;12.48;;;5.25;;
20743;SDS011;56303;52.160;-0.428;2023-08-24T09:40:50;9.15;;;5.50;;
20743;SDS011;56303;52.160;-0.428;2023-08-24T09:43:18;10.45;;;5.82;;
20743;SDS011;56303;52.160;-0.428;2023-08-24T09:45:49;7.35;;;4.47;;
20743;SDS011;56303;52.160;-0.428;2023-08-24T09:48:16;9.55;;;4.97;;
20743;SDS011;56303;52.160;-0.428;2023-08-24T09:50:44;7.68;;;4.88;;
20743;SDS011;56303;52.160;-0.428;2023-08-24T09:53:20;8.80;;;4.00;;
20743;SDS011;56303;52.160;-0.428;2023-08-24T09:56:00;7.85;;;4.30;;
20743;SDS011;56303;52.160;-0.428;2023-08-24T09:58:28;7.50;;;3.65;;
20743;SDS011;56303;52.160;-0.428;2023-08-24T10:00:56;6.82;;;4.13;;
20743;SDS011;56303;52.160;-0.428;2023-08-24T10:03:26;6.20;;;3.80;;
20743;SDS011;56303;52.160;-0.428;2023-08-24T10:05:55;8.85;;;3.15;;
20743;SDS011;56303;52.160;-0.428;2023-08-24T10:08:34;7.35;;;4.28;;
20743;SDS011;56303;52.160;-0.428;2023-08-24T10:11:04;5.90;;;3.40;;
20743;SDS011;56303;52.160;-0.428;2023-08-24T10:16:05;6.22;;;3.63;;
20743;SDS011;56303;52.160;-0.428;2023-08-24T10:18:34;5.57;;;3.70;;
20743;SDS011;56303;52.160;-0.428;2023-08-24T10:21:03;4.70;;;3.05;;
20743;SDS011;56303;52.160;-0.428;2023-08-24T10:23:30;5.28;;;3.58;;
20743;SDS011;56303;52.160;-0.428;2023-08-24T10:26:01;5.30;;;3.28;;
20743;SDS011;56303;52.160;-0.428;2023-08-24T10:28:30;5.65;;;3.63;;
20743;SDS011;56303;52.160;-0.428;2023-08-24T10:30:58;6.18;;;3.60;;
20743;SDS011;56303;52.160;-0.428;2023-08-24T10:33:26;6.38;;;2.90;;
20743;SDS011;56303;52.160;-0.428;2023-08-24T10:35:54;9.18;;;3.33;;
20743;SDS011;56303;52.160;-0.428;2023-08-24T10:38:25;4.32;;;2.80;;
20743;SDS011;56303;52.160;-0.428;2023-08-24T10:40:54;5.18;;;3.03;;
20743;SDS011;56303;52.160;-0.428;2023-08-24T10:43:28;4.75;;;3.00;;
20743;SDS011;56303;52.160;-0.428;2023-08-24T10:46:01;4.63;;;2.90;;
20743;SDS011;56303;52.160;-0.428;2023-08-24T10:48:56;8.32;;;3.60;;
20743;SDS011;56303;52.160;-0.428;2023-08-24T10:51:17;5.88;;;3.30;;
20743;SDS011;56303;52.160;-0.428;2023-08-24T10:53:53;10.82;;;3.05;;
20743;SDS011;56303;52.160;-0.428;2023-08-24T10:56:38;5.03;;;2.92;;
20743;SDS011;56303;52.160;-0.428;2023-08-24T11:01:43;7.22;;;3.60;;
20743;SDS011;56303;52.160;-0.428;2023-08-24T11:04:21;5.88;;;3.03;;
20743;SDS011;56303;52.160;-0.428;2023-08-24T11:06:54;8.10;;;3.47;;
20743;SDS011;56303;52.160;-0.428;2023-08-24T11:09:26;8.23;;;3.30;;
20743;SDS011;56303;52.160;-0.428;2023-08-24T11:12:12;5.60;;;3.15;;
20743;SDS011;56303;52.160;-0.428;2023-08-24T11:14:49;6.72;;;3.15;;
20743;SDS011;56303;52.160;-0.428;2023-08-24T11:17:21;6.78;;;3.63;;
20743;SDS011;56303;52.160;-0.428;2023-08-24T11:19:49;6.15;;;2.80;;
20743;SDS011;56303;52.160;-0.428;2023-08-24T11:22:20;6.90;;;2.90;;
20743;SDS011;56303;52.160;-0.428;2023-08-24T11:24:50;5.57;;;3.38;;
20743;SDS011;56303;52.160;-0.428;2023-08-24T11:27:17;5.57;;;3.28;;
20743;SDS011;56303;52.160;-0.428;2023-08-24T11:29:46;8.30;;;2.83;;
20743;SDS011;56303;52.160;-0.428;2023-08-24T11:32:23;6.90;;;2.97;;
20743;SDS011;56303;52.160;-0.428;2023-08-24T11:34:50;5.72;;;2.60;;
20743;SDS011;56303;52.160;-0.428;2023-08-24T11:37:20;4.88;;;3.10;;
20743;SDS011;56303;52.160;-0.428;2023-08-24T11:39:46;6.13;;;2.85;;
20743;SDS011;56303;52.160;-0.428;2023-08-24T11:42:13;4.07;;;2.50;;
20743;SDS011;56303;52.160;-0.428;2023-08-24T11:44:47;6.43;;;3.10;;
20743;SDS011;56303;52.160;-0.428;2023-08-24T11:47:15;6.82;;;3.08;;
20743;SDS011;56303;52.160;-0.428;2023-08-24T11:49:42;4.80;;;2.47;;
20743;SDS011;56303;52.160;-0.428;2023-08-24T11:52:09;5.28;;;2.78;;
20743;SDS011;56303;52.160;-0.428;2023-08-24T11:54:36;4.82;;;2.55;;
20743;SDS011;56303;52.160;-0.428;2023-08-24T11:57:06;4.40;;;2.28;;
20743;SDS011;56303;52.160;-0.428;2023-08-24T11:59:35;8.07;;;2.67;;
20743;SDS011;56303;52.160;-0.428;2023-08-24T12:02:03;5.45;;;2.20;;
20743;SDS011;56303;52.160;-0.428;2023-08-24T12:04:41;8.20;;;2.70;;
20743;SDS011;56303;52.160;-0.428;2023-08-24T12:07:12;5.30;;;2.72;;
20743;SDS011;56303;52.160;-0.428;2023-08-24T12:09:40;4.85;;;2.58;;
20743;SDS011;56303;52.160;-0.428;2023-08-24T12:12:14;5.72;;;2.47;;
20743;SDS011;56303;52.160;-0.428;2023-08-24T12:14:43;3.22;;;2.20;;
20743;SDS011;56303;52.160;-0.428;2023-08-24T12:17:10;4.32;;;2.50;;
20743;SDS011;56303;52.160;-0.428;2023-08-24T12:19:41;4.90;;;2.70;;
20743;SDS011;56303;52.160;-0.428;2023-08-24T12:22:13;7.43;;;2.80;;
20743;SDS011;56303;52.160;-0.428;2023-08-24T12:24:44;5.95;;;2.30;;
20743;SDS011;56303;52.160;-0.428;2023-08-24T12:27:24;4.72;;;2.67;;
20743;SDS011;56303;52.160;-0.428;2023-08-24T12:29:52;5.22;;;2.67;;
20743;SDS011;56303;52.160;-0.428;2023-08-24T12:32:20;4.70;;;2.58;;
20743;SDS011;56303;52.160;-0.428;2023-08-24T12:34:49;4.70;;;2.30;;
20743;SDS011;56303;52.160;-0.428;2023-08-24T12:37:21;3.53;;;2.45;;
20743;SDS011;56303;52.160;-0.428;2023-08-24T12:39:48;3.22;;;1.90;;
20743;SDS011;56303;52.160;-0.428;2023-08-24T12:42:15;3.17;;;1.92;;
20743;SDS011;56303;52.160;-0.428;2023-08-24T12:44:42;2.97;;;2.10;;
20743;SDS011;56303;52.160;-0.428;2023-08-24T12:47:09;1.70;;;1.60;;
20743;SDS011;56303;52.160;-0.428;2023-08-24T12:49:36;5.85;;;2.30;;
20743;SDS011;56303;52.160;-0.428;2023-08-24T12:52:03;4.75;;;2.45;;
20743;SDS011;56303;52.160;-0.428;2023-08-24T12:54:30;3.28;;;1.95;;
20743;SDS011;56303;52.160;-0.428;2023-08-24T12:56:57;5.50;;;1.92;;
20743;SDS011;56303;52.160;-0.428;2023-08-24T12:59:24;4.22;;;1.92;;
20743;SDS011;56303;52.160;-0.428;2023-08-24T13:01:51;6.07;;;2.20;;
20743;SDS011;56303;52.160;-0.428;2023-08-24T13:04:17;6.80;;;2.10;;
20743;SDS011;56303;52.160;-0.428;2023-08-24T13:06:44;4.00;;;1.60;;
20743;SDS011;56303;52.160;-0.428;2023-08-24T13:09:11;1.65;;;1.55;;
20743;SDS011;56303;52.160;-0.428;2023-08-24T13:11:40;2.08;;;1.50;;
20743;SDS011;56303;52.160;-0.428;2023-08-24T13:14:06;2.30;;;1.58;;
20743;SDS011;56303;52.160;-0.428;2023-08-24T13:16:33;3.83;;;1.80;;
20743;SDS011;56303;52.160;-0.428;2023-08-24T13:19:00;4.18;;;1.92;;
20743;SDS011;56303;52.160;-0.428;2023-08-24T13:21:27;2.30;;;1.55;;
20743;SDS011;56303;52.160;-0.428;2023-08-24T13:23:56;3.05;;;1.90;;
20743;SDS011;56303;52.160;-0.428;2023-08-24T13:26:23;4.63;;;1.63;;
20743;SDS011;56303;52.160;-0.428;2023-08-24T13:28:52;4.47;;;1.80;;
20743;SDS011;56303;52.160;-0.428;2023-08-24T13:31:19;3.20;;;1.73;;
20743;SDS011;56303;52.160;-0.428;2023-08-24T13:33:45;2.45;;;1.92;;
20743;SDS011;56303;52.160;-0.428;2023-08-24T13:36:12;5.63;;;1.92;;
20743;SDS011;56303;52.160;-0.428;2023-08-24T13:38:39;3.10;;;1.65;;
20743;SDS011;56303;52.160;-0.428;2023-08-24T13:41:06;3.95;;;2.17;;
20743;SDS011;56303;52.160;-0.428;2023-08-24T13:43:33;2.90;;;1.63;;
20743;SDS011;56303;52.160;-0.428;2023-08-24T13:46:00;2.88;;;1.75;;
20743;SDS011;56303;52.160;-0.428;2023-08-24T13:48:30;3.15;;;1.90;;
20743;SDS011;56303;52.160;-0.428;2023-08-24T13:51:00;6.45;;;1.80;;
20743;SDS011;56303;52.160;-0.428;2023-08-24T13:53:27;4.22;;;1.75;;
20743;SDS011;56303;52.160;-0.428;2023-08-24T13:55:54;4.53;;;3.00;;
20743;SDS011;56303;52.160;-0.428;2023-08-24T13:58:21;4.13;;;1.67;;
20743;SDS011;56303;52.160;-0.428;2023-08-24T14:00:48;3.08;;;1.70;;
20743;SDS011;56303;52.160;-0.428;2023-08-24T14:03:21;5.28;;;1.73;;
20743;SDS011;56303;52.160;-0.428;2023-08-24T14:05:48;3.38;;;1.85;;
20743;SDS011;56303;52.160;-0.428;2023-08-24T14:08:17;1.77;;;1.33;;
20743;SDS011;56303;52.160;-0.428;2023-08-24T14:10:44;2.08;;;1.60;;
20743;SDS011;56303;52.160;-0.428;2023-08-24T14:13:11;1.92;;;1.65;;
20743;SDS011;56303;52.160;-0.428;2023-08-24T14:15:37;3.60;;;2.03;;
20743;SDS011;56303;52.160;-0.428;2023-08-24T14:18:04;2.53;;;1.52;;
20743;SDS011;56303;52.160;-0.428;2023-08-24T14:20:31;3.85;;;2.03;;
20743;SDS011;56303;52.160;-0.428;2023-08-24T14:22:58;4.22;;;1.98;;
20743;SDS011;56303;52.160;-0.428;2023-08-24T14:25:25;3.50;;;2.00;;
20743;SDS011;56303;52.160;-0.428;2023-08-24T14:27:51;3.40;;;1.90;;
20743;SDS011;56303;52.160;-0.428;2023-08-24T14:30:31;4.15;;;1.90;;
20743;SDS011;56303;52.160;-0.428;2023-08-24T14:32:58;1.50;;;1.40;;
20743;SDS011;56303;52.160;-0.428;2023-08-24T14:35:25;2.25;;;1.60;;
20743;SDS011;56303;52.160;-0.428;2023-08-24T14:37:52;3.38;;;1.70;;
20743;SDS011;56303;52.160;-0.428;2023-08-24T14:40:19;9.60;;;1.77;;
20743;SDS011;56303;52.160;-0.428;2023-08-24T14:42:46;1.38;;;1.25;;
20743;SDS011;56303;52.160;-0.428;2023-08-24T14:45:15;2.85;;;1.58;;